createdAt,value
2019-04-11T00:01:56.735Z,1.00
2019-04-11T00:04:26.639Z,1.13
2019-04-11T00:06:56.609Z,1.40
2019-04-11T00:09:27.015Z,1.00
2019-04-11T00:11:59.961Z,1.20
2019-04-11T00:14:29.996Z,1.20
2019-04-11T00:16:59.871Z,1.30
2019-04-11T00:19:29.838Z,1.03
2019-04-11T00:21:59.849Z,1.30
2019-04-11T00:24:29.741Z,1.10
2019-04-11T00:27:00.351Z,1.10
2019-04-11T00:29:30.370Z,0.80
2019-04-11T00:32:01.142Z,1.10
2019-04-11T00:34:31.246Z,1.17
2019-04-11T00:37:01.315Z,1.00
2019-04-11T00:39:31.927Z,1.27
2019-04-11T00:42:02.086Z,1.00
2019-04-11T00:44:32.760Z,1.00
2019-04-11T00:47:02.813Z,0.90
2019-04-11T00:49:32.696Z,0.87
2019-04-11T00:52:02.737Z,1.40
2019-04-11T00:54:33.164Z,1.17
2019-04-11T00:57:04.330Z,1.00
2019-04-11T00:59:34.471Z,1.10
2019-04-11T01:02:05.252Z,1.00
2019-04-11T01:04:35.231Z,1.10
2019-04-11T01:07:05.120Z,1.00
2019-04-11T01:09:35.023Z,1.03
2019-04-11T01:12:04.940Z,0.97
2019-04-11T01:14:37.123Z,1.30
2019-04-11T01:17:07.772Z,0.77
2019-04-11T01:19:38.621Z,0.90
2019-04-11T01:22:09.877Z,0.90
2019-04-11T01:24:39.956Z,1.07
2019-04-11T01:27:10.128Z,1.00
2019-04-11T01:29:40.123Z,0.83
2019-04-11T01:32:11.609Z,1.30
2019-04-11T01:34:42.508Z,1.03
2019-04-11T01:37:12.751Z,0.97
2019-04-11T01:39:51.411Z,0.97
2019-04-11T01:42:22.798Z,0.93
2019-04-11T01:44:52.773Z,1.10
2019-04-11T01:47:40.309Z,0.90
2019-04-11T01:50:12.558Z,1.40
2019-04-11T01:52:42.704Z,0.90
2019-04-11T01:55:14.388Z,1.13
2019-04-11T01:57:44.667Z,0.90
2019-04-11T02:00:17.761Z,1.27
2019-04-11T02:02:49.355Z,1.00
2019-04-11T02:05:25.074Z,1.10
2019-04-11T02:07:55.320Z,1.10
2019-04-11T02:10:26.482Z,0.70
2019-04-11T02:12:56.580Z,0.90
2019-04-11T02:15:28.150Z,1.07
2019-04-11T02:17:59.224Z,1.10
2019-04-11T02:20:29.326Z,1.10
2019-04-11T02:23:04.611Z,0.90
2019-04-11T02:25:36.660Z,1.10
2019-04-11T02:28:08.562Z,1.00
2019-04-11T02:30:41.768Z,1.17
2019-04-11T02:33:13.666Z,1.30
2019-04-11T02:35:46.069Z,1.20
2019-04-11T02:38:16.542Z,1.20
2019-04-11T02:40:49.086Z,1.20
2019-04-11T02:43:18.350Z,1.40
2019-04-11T02:46:01.726Z,1.40
2019-04-11T02:48:21.344Z,1.50
2019-04-11T02:50:51.554Z,1.60
2019-04-11T02:53:23.830Z,2.10
2019-04-11T02:55:54.275Z,1.40
2019-04-11T02:58:25.432Z,2.00
2019-04-11T03:01:00.302Z,2.23
2019-04-11T03:03:29.589Z,2.37
2019-04-11T03:06:00.384Z,2.80
2019-04-11T03:08:34.206Z,2.63
2019-04-11T03:11:02.920Z,2.60
2019-04-11T03:13:38.272Z,3.20
2019-04-11T03:16:23.680Z,3.63
2019-04-11T03:18:54.824Z,4.07
2019-04-11T03:21:14.458Z,3.43
2019-04-11T03:23:44.024Z,3.93
2019-04-11T03:26:14.373Z,3.80
2019-04-11T03:28:48.978Z,3.77
2019-04-11T03:31:59.577Z,4.43
2019-04-11T03:34:38.969Z,4.70
2019-04-11T03:39:15.426Z,3.93
2019-04-11T03:41:40.863Z,3.77
2019-04-11T03:44:04.373Z,3.40
2019-04-11T03:46:43.326Z,3.57
2019-04-11T03:49:06.195Z,3.17
2019-04-11T03:51:31.270Z,3.10
2019-04-11T03:54:01.572Z,2.83
2019-04-11T03:56:33.113Z,3.07
2019-04-11T03:59:04.184Z,2.17
2019-04-11T04:01:35.546Z,3.10
2019-04-11T04:04:06.602Z,2.67
2019-04-11T04:06:37.376Z,3.20
2019-04-11T04:09:08.988Z,3.30
2019-04-11T04:11:42.692Z,2.87
2019-04-11T04:14:32.460Z,3.47
2019-04-11T04:17:23.646Z,3.03
2019-04-11T04:19:56.611Z,3.30
2019-04-11T04:22:29.392Z,3.33
2019-04-11T04:25:01.086Z,3.97
2019-04-11T04:27:32.678Z,3.30
2019-04-11T04:30:05.297Z,3.30
2019-04-11T04:32:36.058Z,3.77
2019-04-11T04:35:10.740Z,4.13
2019-04-11T04:37:40.999Z,3.73
2019-04-11T04:40:28.031Z,4.40
2019-04-11T04:42:47.898Z,3.97
2019-04-11T04:45:16.372Z,5.03
2019-04-11T04:47:54.336Z,4.80
2019-04-11T04:50:20.062Z,4.00
2019-04-11T04:52:51.599Z,4.10
2019-04-11T04:55:23.390Z,3.80
2019-04-11T04:57:55.241Z,3.70
2019-04-11T05:00:26.009Z,4.87
2019-04-11T05:02:57.527Z,4.93
2019-04-11T05:05:29.240Z,5.33
2019-04-11T05:08:00.633Z,4.50
2019-04-11T05:10:32.579Z,4.00
2019-04-11T05:13:05.686Z,4.17
2019-04-11T05:15:36.582Z,4.50
2019-04-11T05:18:08.700Z,4.50
2019-04-11T05:20:38.612Z,8.33
2019-04-11T05:23:08.658Z,5.27
2019-04-11T05:25:39.711Z,4.27
2019-04-11T05:28:09.943Z,4.93
2019-04-11T05:30:40.006Z,4.70
2019-04-11T05:33:09.891Z,4.30
2019-04-11T05:35:39.817Z,5.03
2019-04-11T05:38:10.866Z,4.90
2019-04-11T05:40:41.874Z,4.90
2019-04-11T05:43:12.030Z,4.53
2019-04-11T05:45:42.270Z,4.97
2019-04-11T05:48:31.484Z,5.33
2019-04-11T05:51:01.694Z,4.83
2019-04-11T05:53:33.560Z,4.77
2019-04-11T05:56:07.165Z,5.27
2019-04-11T05:58:42.217Z,4.83
2019-04-11T06:01:15.065Z,4.93
2019-04-11T06:03:46.379Z,5.57
2019-04-11T06:06:37.746Z,5.47
2019-04-11T06:09:10.448Z,5.63
2019-04-11T06:11:52.363Z,5.17
2019-04-11T06:14:21.189Z,4.80
2019-04-11T06:16:55.644Z,4.90
2019-04-11T06:19:25.911Z,5.50
2019-04-11T06:22:00.340Z,5.03
2019-04-11T06:24:38.850Z,4.87
2019-04-11T06:27:11.303Z,5.43
2019-04-11T06:30:01.495Z,4.60
2019-04-11T06:32:48.908Z,5.37
2019-04-11T06:35:24.089Z,4.67
2019-04-11T06:38:05.933Z,4.17
2019-04-11T06:40:37.701Z,5.20
2019-04-11T06:43:16.929Z,4.90
2019-04-11T06:46:07.021Z,4.23
2019-04-11T06:48:39.965Z,3.93
2019-04-11T06:51:11.644Z,3.90
2019-04-11T06:53:44.099Z,4.03
2019-04-11T06:56:16.734Z,3.63
2019-04-11T06:58:52.011Z,3.73
2019-04-11T07:01:22.667Z,3.97
2019-04-11T07:03:57.508Z,3.13
2019-04-11T07:06:29.396Z,2.97
2019-04-11T07:09:17.520Z,2.40
2019-04-11T07:11:52.638Z,2.40
2019-04-11T07:14:24.226Z,2.37
2019-04-11T07:17:13.645Z,2.60
2019-04-11T07:20:04.507Z,1.93
2019-04-11T07:22:52.640Z,2.20
2019-04-11T07:25:24.149Z,1.80
2019-04-11T07:28:11.980Z,1.60
2019-04-11T07:30:47.366Z,1.63
2019-04-11T07:33:28.890Z,2.03
2019-04-11T07:36:18.318Z,1.70
2019-04-11T07:39:06.140Z,2.17
2019-04-11T07:41:39.044Z,2.17
2019-04-11T07:44:15.374Z,2.17
2019-04-11T07:47:14.620Z,2.10
2019-04-11T07:49:37.466Z,2.30
2019-04-11T07:52:09.047Z,2.53
2019-04-11T07:54:39.089Z,2.37
2019-04-11T07:57:10.672Z,2.50
2019-04-11T07:59:49.078Z,2.37
2019-04-11T08:02:38.248Z,2.10
2019-04-11T08:05:19.762Z,2.40
2019-04-11T08:07:55.050Z,2.20
2019-04-11T08:10:37.214Z,2.23
2019-04-11T08:13:20.911Z,2.57
2019-04-11T08:16:09.034Z,2.63
2019-04-11T08:18:41.123Z,2.83
2019-04-11T08:21:30.038Z,3.53
2019-04-11T08:24:02.996Z,2.90
2019-04-11T08:26:50.809Z,2.97
2019-04-11T08:29:22.207Z,2.67
2019-04-11T08:32:09.949Z,3.53
2019-04-11T08:34:47.928Z,3.30
2019-04-11T08:37:35.984Z,2.60
2019-04-11T08:40:09.422Z,3.30
2019-04-11T08:42:57.252Z,3.37
2019-04-11T08:45:29.805Z,2.83
2019-04-11T08:48:02.394Z,3.20
2019-04-11T08:50:37.164Z,3.30
2019-04-11T08:53:18.576Z,3.43
2019-04-11T08:55:58.868Z,3.17
2019-04-11T08:58:45.248Z,4.00
2019-04-11T09:01:25.201Z,3.43
2019-04-11T09:04:04.649Z,3.30
2019-04-11T09:06:30.621Z,3.23
2019-04-11T09:09:18.858Z,3.20
2019-04-11T09:11:54.078Z,3.33
2019-04-11T09:14:41.809Z,3.57
2019-04-11T09:17:16.466Z,3.13
2019-04-11T09:19:49.331Z,3.20
2019-04-11T09:22:33.300Z,3.07
2019-04-11T09:25:11.104Z,3.37
2019-04-11T09:27:57.931Z,4.27
2019-04-11T09:30:35.161Z,3.90
2019-04-11T09:33:23.325Z,6.27
2019-04-11T09:36:01.715Z,4.13
2019-04-11T09:38:40.231Z,3.83
2019-04-11T09:41:24.699Z,3.47
2019-04-11T09:43:56.487Z,4.13
2019-04-11T09:46:30.259Z,3.70
2019-04-11T09:49:12.064Z,3.87
2019-04-11T09:51:47.739Z,3.83
2019-04-11T09:54:22.377Z,3.40
2019-04-11T09:57:02.950Z,4.37
2019-04-11T09:59:34.491Z,3.97
2019-04-11T10:02:15.126Z,4.63
2019-04-11T10:04:46.615Z,3.90
2019-04-11T10:07:18.104Z,3.37
2019-04-11T10:10:04.990Z,3.53
2019-04-11T10:12:52.582Z,4.13
2019-04-11T10:15:24.127Z,3.20
2019-04-11T10:18:05.183Z,3.50
2019-04-11T10:20:37.048Z,3.77
2019-04-11T10:23:08.546Z,3.33
2019-04-11T10:25:40.156Z,3.70
2019-04-11T10:28:11.762Z,3.23
2019-04-11T10:30:59.882Z,3.70
2019-04-11T10:33:35.187Z,3.57
2019-04-11T10:36:07.151Z,3.20
2019-04-11T10:38:38.555Z,4.00
2019-04-11T10:41:26.293Z,3.17
2019-04-11T10:43:57.157Z,3.87
2019-04-11T10:46:37.946Z,4.00
2019-04-11T10:49:09.505Z,4.60
2019-04-11T10:51:53.965Z,3.37
2019-04-11T10:54:24.456Z,3.30
2019-04-11T10:57:01.816Z,3.43
2019-04-11T10:59:35.998Z,3.53
2019-04-11T11:02:13.375Z,3.23
2019-04-11T11:04:45.131Z,3.33
2019-04-11T11:07:16.508Z,2.87
2019-04-11T11:09:47.932Z,3.77
2019-04-11T11:12:35.141Z,3.63
2019-04-11T11:15:07.880Z,3.30
2019-04-11T11:18:25.224Z,2.93
2019-04-11T11:20:43.012Z,3.40
2019-04-11T11:23:26.873Z,2.83
2019-04-11T11:26:04.854Z,3.03
2019-04-11T11:28:39.461Z,3.60
2019-04-11T11:31:11.926Z,3.60
2019-04-11T11:33:44.896Z,3.50
2019-04-11T11:36:19.491Z,3.37
2019-04-11T11:39:09.377Z,3.97
2019-04-11T11:41:56.827Z,3.30
2019-04-11T11:44:28.680Z,3.43
2019-04-11T11:47:17.443Z,4.03
2019-04-11T11:49:55.634Z,3.07
2019-04-11T11:52:37.566Z,3.80
2019-04-11T11:55:10.267Z,4.10
2019-04-11T11:57:42.690Z,3.53
2019-04-11T12:00:17.286Z,3.63
2019-04-11T12:02:51.384Z,3.53
2019-04-11T12:05:26.095Z,3.97
2019-04-11T12:07:56.462Z,3.67
2019-04-11T12:10:39.996Z,3.70
2019-04-11T12:13:14.399Z,3.53
2019-04-11T12:15:51.142Z,3.60
2019-04-11T12:18:46.670Z,4.70
2019-04-11T12:21:16.340Z,4.23
2019-04-11T12:24:00.826Z,3.93
2019-04-11T12:26:28.826Z,4.27
2019-04-11T12:29:15.730Z,4.47
2019-04-11T12:31:48.137Z,4.03
2019-04-11T12:34:36.568Z,4.67
2019-04-11T12:37:08.520Z,4.07
2019-04-11T12:39:56.575Z,4.30
2019-04-11T12:42:31.220Z,3.87
2019-04-11T12:45:15.109Z,4.40
2019-04-11T12:47:45.364Z,5.07
2019-04-11T12:50:36.085Z,4.13
2019-04-11T12:53:07.546Z,4.27
2019-04-11T12:55:55.540Z,4.07
2019-04-11T12:58:30.045Z,4.50
2019-04-11T13:01:18.024Z,15.20
2019-04-11T13:04:01.852Z,5.27
2019-04-11T13:06:50.651Z,4.27
2019-04-11T13:09:28.343Z,4.03
2019-04-11T13:11:59.833Z,4.00
2019-04-11T13:14:49.336Z,4.60
2019-04-11T13:17:35.807Z,4.60
2019-04-11T13:20:25.127Z,4.57
2019-04-11T13:23:13.039Z,3.97
2019-04-11T13:26:00.967Z,4.63
2019-04-11T13:28:32.460Z,4.73
2019-04-11T13:31:04.075Z,5.10
2019-04-11T13:33:33.958Z,4.93
2019-04-11T13:36:08.215Z,4.87
2019-04-11T13:38:38.650Z,4.77
2019-04-11T13:41:26.687Z,4.60
2019-04-11T13:43:57.182Z,4.50
2019-04-11T13:46:34.425Z,5.33
2019-04-11T13:49:06.039Z,4.63
2019-04-11T13:51:40.743Z,4.63
2019-04-11T13:54:28.481Z,3.93
2019-04-11T13:57:14.960Z,4.80
2019-04-11T14:00:02.659Z,4.33
2019-04-11T14:02:50.915Z,15.70
2019-04-11T14:05:19.124Z,6.37
2019-04-11T14:07:50.064Z,4.37
2019-04-11T14:10:21.344Z,4.17
2019-04-11T14:12:52.913Z,4.97
2019-04-11T14:15:29.395Z,4.30
2019-04-11T14:18:16.960Z,4.93
2019-04-11T14:20:48.435Z,4.80
2019-04-11T14:23:25.909Z,5.10
2019-04-11T14:26:06.247Z,4.63
2019-04-11T14:28:37.904Z,4.27
2019-04-11T14:31:21.806Z,4.90
2019-04-11T14:33:55.555Z,3.73
2019-04-11T14:36:43.265Z,3.67
2019-04-11T14:39:14.748Z,4.40
2019-04-11T14:42:02.630Z,3.77
2019-04-11T14:44:34.231Z,4.37
2019-04-11T14:47:06.856Z,4.03
2019-04-11T14:49:40.612Z,4.73
2019-04-11T14:52:10.607Z,4.53
2019-04-11T14:54:42.168Z,4.33
2019-04-11T14:57:22.812Z,4.37
2019-04-11T14:59:54.147Z,4.13
2019-04-11T15:02:32.087Z,4.23
2019-04-11T15:05:13.911Z,5.03
2019-04-11T15:07:46.127Z,4.63
2019-04-11T15:10:34.910Z,4.30
2019-04-11T15:13:07.410Z,4.10
2019-04-11T15:15:57.689Z,4.23
2019-04-11T15:18:27.588Z,4.03
2019-04-11T15:21:01.969Z,4.97
2019-04-11T15:23:33.411Z,4.30
2019-04-11T15:26:21.329Z,4.33
2019-04-11T15:28:58.738Z,3.53
2019-04-11T15:31:39.086Z,4.33
2019-04-11T15:34:03.308Z,4.23
2019-04-11T15:36:33.599Z,3.87
2019-04-11T15:39:08.491Z,4.63
2019-04-11T15:41:39.931Z,9.50
2019-04-11T15:44:14.556Z,4.90
2019-04-11T15:46:47.668Z,4.37
2019-04-11T15:49:31.411Z,4.07
2019-04-11T15:52:06.297Z,4.33
2019-04-11T15:54:48.435Z,4.23
2019-04-11T15:57:19.938Z,14.17
2019-04-11T16:00:07.623Z,4.30
2019-04-11T16:02:55.643Z,3.90
2019-04-11T16:05:43.419Z,3.87
2019-04-11T16:08:15.053Z,4.17
2019-04-11T16:10:52.304Z,3.87
2019-04-11T16:13:29.635Z,3.77
2019-04-11T16:16:06.817Z,4.00
2019-04-11T16:18:34.340Z,3.90
2019-04-11T16:21:18.097Z,3.80
2019-04-11T16:23:44.780Z,4.10
2019-04-11T16:26:17.667Z,3.83
2019-04-11T16:28:49.174Z,4.27
2019-04-11T16:31:19.054Z,3.73
2019-04-11T16:33:50.573Z,3.93
2019-04-11T16:36:22.039Z,3.67
2019-04-11T16:39:09.778Z,3.70
2019-04-11T16:41:57.670Z,3.37
2019-04-11T16:44:47.319Z,4.10
2019-04-11T16:47:26.006Z,3.77
2019-04-11T16:50:01.670Z,3.90
2019-04-11T16:52:32.341Z,3.80
2019-04-11T16:55:02.432Z,4.07
2019-04-11T16:57:34.107Z,3.60
2019-04-11T17:00:09.144Z,3.20
2019-04-11T17:02:39.222Z,3.43
2019-04-11T17:05:09.362Z,3.10
2019-04-11T17:07:56.148Z,3.43
2019-04-11T17:10:44.619Z,3.40
2019-04-11T17:13:14.893Z,3.60
2019-04-11T17:15:44.799Z,3.60
2019-04-11T17:18:14.715Z,3.37
2019-04-11T17:20:44.675Z,3.70
2019-04-11T17:23:17.236Z,3.23
2019-04-11T17:25:48.205Z,4.30
2019-04-11T17:28:17.765Z,3.30
2019-04-11T17:30:47.646Z,3.97
2019-04-11T17:33:17.548Z,4.43
2019-04-11T17:35:47.440Z,3.50
2019-04-11T17:38:17.342Z,3.30
2019-04-11T17:40:47.281Z,4.00
2019-04-11T17:43:17.251Z,3.80
2019-04-11T17:45:47.220Z,3.47
2019-04-11T17:48:17.124Z,4.00
2019-04-11T17:50:47.072Z,3.80
2019-04-11T17:53:16.982Z,3.90
2019-04-11T17:55:47.143Z,3.60
2019-04-11T17:58:18.275Z,3.80
2019-04-11T18:00:55.685Z,3.83
2019-04-11T18:03:25.774Z,3.50
2019-04-11T18:05:55.821Z,3.67
2019-04-11T18:08:25.743Z,4.53
2019-04-11T18:10:56.563Z,10.50
2019-04-11T18:13:30.508Z,7.37
2019-04-11T18:16:00.718Z,4.67
2019-04-11T18:18:30.171Z,4.03
2019-04-11T18:21:00.080Z,3.63
2019-04-11T18:23:30.131Z,3.53
2019-04-11T18:26:00.093Z,4.00
2019-04-11T18:28:30.393Z,4.07
2019-04-11T18:31:00.270Z,3.60
2019-04-11T18:33:31.791Z,3.80
2019-04-11T18:36:02.867Z,5.80
2019-04-11T18:38:32.983Z,4.00
2019-04-11T18:41:03.027Z,3.97
2019-04-11T18:43:33.077Z,3.40
2019-04-11T18:46:02.995Z,3.40
2019-04-11T18:48:32.883Z,2.90
2019-04-11T18:51:02.826Z,2.97
2019-04-11T18:53:34.210Z,3.47
2019-04-11T18:56:04.246Z,3.50
2019-04-11T18:58:35.100Z,3.80
2019-04-11T19:01:08.811Z,3.13
2019-04-11T19:03:41.176Z,3.80
2019-04-11T19:06:12.921Z,3.40
2019-04-11T19:08:43.087Z,3.57
2019-04-11T19:11:15.438Z,4.07
2019-04-11T19:13:46.761Z,3.73
2019-04-11T19:16:16.118Z,4.07
2019-04-11T19:18:47.805Z,3.60
2019-04-11T19:21:21.072Z,3.73
2019-04-11T19:23:51.171Z,4.00
2019-04-11T19:26:22.850Z,3.10
2019-04-11T19:28:54.849Z,3.00
2019-04-11T19:31:27.396Z,3.07
2019-04-11T19:33:55.822Z,3.20
2019-04-11T19:36:26.801Z,3.63
2019-04-11T19:38:57.012Z,3.50
2019-04-11T19:41:27.198Z,2.90
2019-04-11T19:43:57.074Z,3.53
2019-04-11T19:46:27.201Z,4.23
2019-04-11T19:48:59.484Z,3.43
2019-04-11T19:51:29.588Z,3.20
2019-04-11T19:54:02.959Z,3.47
2019-04-11T19:56:50.608Z,3.50
2019-04-11T19:59:21.511Z,3.13
2019-04-11T20:01:53.257Z,3.50
2019-04-11T20:04:24.006Z,3.80
2019-04-11T20:06:55.492Z,3.30
2019-04-11T20:09:25.438Z,3.17
2019-04-11T20:11:55.305Z,3.73
2019-04-11T20:14:25.244Z,3.40
2019-04-11T20:16:55.222Z,3.97
2019-04-11T20:19:27.510Z,3.27
2019-04-11T20:21:56.697Z,3.90
2019-04-11T20:24:26.573Z,3.07
2019-04-11T20:26:56.455Z,4.10
2019-04-11T20:29:26.327Z,3.63
2019-04-11T20:31:56.275Z,4.73
2019-04-11T20:34:27.638Z,3.83
2019-04-11T20:36:57.696Z,4.00
2019-04-11T20:39:27.605Z,4.03
2019-04-11T20:41:57.531Z,3.90
2019-04-11T20:44:28.091Z,4.30
2019-04-11T20:47:00.396Z,4.70
2019-04-11T20:49:30.028Z,3.80
2019-04-11T20:51:59.960Z,3.90
2019-04-11T20:54:30.250Z,4.13
2019-04-11T20:57:00.209Z,3.77
2019-04-11T20:59:34.814Z,3.57
2019-04-11T21:02:01.891Z,3.90
2019-04-11T21:04:31.930Z,4.20
2019-04-11T21:07:02.609Z,4.43
2019-04-11T21:09:33.330Z,4.13
2019-04-11T21:12:04.994Z,5.17
2019-04-11T21:14:36.436Z,3.73
2019-04-11T21:17:06.588Z,4.63
2019-04-11T21:19:36.492Z,4.33
2019-04-11T21:22:06.441Z,4.20
2019-04-11T21:24:36.407Z,4.27
2019-04-11T21:27:06.630Z,4.33
2019-04-11T21:29:37.717Z,4.27
2019-04-11T21:32:07.595Z,3.73
2019-04-11T21:34:37.494Z,3.53
2019-04-11T21:37:07.461Z,3.77
2019-04-11T21:39:37.435Z,3.70
2019-04-11T21:42:07.343Z,4.17
2019-04-11T21:44:37.316Z,4.13
2019-04-11T21:47:07.904Z,4.60
2019-04-11T21:49:38.038Z,4.40
2019-04-11T21:52:12.066Z,3.90
2019-04-11T21:54:39.554Z,3.83
2019-04-11T21:57:09.503Z,3.97
2019-04-11T21:59:39.480Z,3.97
2019-04-11T22:02:11.503Z,3.83
2019-04-11T22:04:41.422Z,3.43
2019-04-11T22:07:11.410Z,3.60
2019-04-11T22:09:41.540Z,3.73
2019-04-11T22:12:11.739Z,3.80
2019-04-11T22:14:42.583Z,3.60
2019-04-11T22:17:14.972Z,3.80
2019-04-11T22:19:45.825Z,3.77
2019-04-11T22:22:17.581Z,4.10
2019-04-11T22:24:47.770Z,4.10
2019-04-11T22:27:21.957Z,4.27
2019-04-11T22:29:49.247Z,3.40
2019-04-11T22:32:19.147Z,3.93
2019-04-11T22:34:49.062Z,3.70
2019-04-11T22:37:18.978Z,3.43
2019-04-11T22:39:48.917Z,4.43
2019-04-11T22:42:18.819Z,4.80
2019-04-11T22:44:48.789Z,4.37
2019-04-11T22:47:18.716Z,5.03
2019-04-11T22:49:48.707Z,4.53
2019-04-11T22:52:18.667Z,5.00
2019-04-11T22:54:48.640Z,4.70
2019-04-11T22:57:18.566Z,5.17
2019-04-11T22:59:48.635Z,4.93
2019-04-11T23:02:29.924Z,4.13
2019-04-11T23:04:59.905Z,4.13
2019-04-11T23:07:29.825Z,4.40
2019-04-11T23:09:59.689Z,3.97
2019-04-11T23:12:29.626Z,4.47
2019-04-11T23:14:59.542Z,5.00
2019-04-11T23:17:29.488Z,4.03
2019-04-11T23:19:59.411Z,3.87
2019-04-11T23:22:29.364Z,3.37
2019-04-11T23:24:59.313Z,4.20
2019-04-11T23:27:30.230Z,4.77
2019-04-11T23:30:00.194Z,4.57
2019-04-11T23:32:30.073Z,3.60
2019-04-11T23:34:59.998Z,4.03
2019-04-11T23:37:31.497Z,4.13
2019-04-11T23:40:01.449Z,3.77
2019-04-11T23:42:31.516Z,3.53
2019-04-11T23:45:01.399Z,4.33
2019-04-11T23:47:31.321Z,4.13
2019-04-11T23:50:01.300Z,4.30
2019-04-11T23:52:31.165Z,3.70
2019-04-11T23:55:01.124Z,3.87
2019-04-11T23:57:31.272Z,3.63
